createdAt,value
2019-04-20T00:00:21.012Z,10.96
2019-04-20T00:02:53.493Z,10.42
2019-04-20T00:05:19.559Z,10.51
2019-04-20T00:07:50.190Z,10.70
2019-04-20T00:10:21.596Z,10.78
2019-04-20T00:13:03.841Z,10.64
2019-04-20T00:15:19.727Z,10.67
2019-04-20T00:17:54.267Z,10.70
2019-04-20T00:20:24.611Z,10.52
2019-04-20T00:22:52.367Z,10.35
2019-04-20T00:25:23.504Z,10.39
2019-04-20T00:28:04.688Z,10.27
2019-04-20T00:30:38.892Z,10.36
2019-04-20T00:33:01.323Z,10.34
2019-04-20T00:35:20.863Z,10.37
2019-04-20T00:37:50.738Z,10.30
2019-04-20T00:40:19.508Z,10.26
2019-04-20T00:42:53.845Z,10.09
2019-04-20T00:45:25.781Z,9.97
2019-04-20T00:47:56.296Z,9.83
2019-04-20T00:50:37.483Z,9.69
2019-04-20T00:53:04.678Z,9.71
2019-04-20T00:55:20.903Z,9.81
2019-04-20T00:57:56.317Z,9.80
2019-04-20T01:00:39.688Z,9.72
2019-04-20T01:03:08.405Z,9.59
2019-04-20T01:05:43.357Z,9.66
2019-04-20T01:07:55.055Z,9.66
2019-04-20T01:10:21.512Z,9.57
2019-04-20T01:12:52.003Z,9.60
2019-04-20T01:15:28.074Z,9.29
2019-04-20T01:17:50.050Z,9.21
2019-04-20T01:20:22.691Z,9.30
2019-04-20T01:22:54.659Z,9.38
2019-04-20T01:25:27.238Z,9.41
2019-04-20T01:28:10.364Z,9.33
2019-04-20T01:30:28.346Z,9.22
2019-04-20T01:33:08.786Z,9.14
2019-04-20T01:38:16.878Z,9.10
2019-04-20T01:40:29.515Z,9.12
2019-04-20T01:42:59.537Z,9.22
2019-04-20T01:45:34.080Z,8.82
2019-04-20T01:48:01.275Z,8.75
2019-04-20T01:50:33.301Z,8.64
2019-04-20T01:53:11.531Z,8.79
2019-04-20T01:55:49.472Z,8.75
2019-04-20T01:58:19.455Z,8.72
2019-04-20T02:00:33.137Z,8.69
2019-04-20T02:03:03.836Z,8.76
2019-04-20T02:05:34.018Z,8.82
2019-04-20T02:08:00.320Z,8.74
2019-04-20T02:10:39.521Z,8.78
2019-04-20T02:13:04.237Z,8.65
2019-04-20T02:15:38.622Z,8.62
2019-04-20T02:18:16.243Z,8.60
2019-04-20T02:20:48.597Z,8.62
2019-04-20T02:23:14.552Z,8.59
2019-04-20T02:25:31.139Z,8.67
2019-04-20T02:28:19.207Z,8.67
2019-04-20T02:31:06.630Z,8.55
2019-04-20T02:33:43.011Z,8.62
2019-04-20T02:39:05.878Z,7.99
2019-04-20T02:41:11.479Z,8.13
2019-04-20T02:44:04.402Z,8.25
2019-04-20T02:46:12.302Z,8.41
2019-04-20T02:48:39.369Z,8.23
2019-04-20T02:51:13.256Z,8.32
2019-04-20T02:53:51.424Z,8.33
2019-04-20T02:56:12.332Z,8.32
2019-04-20T02:58:41.519Z,8.01
2019-04-20T03:03:27.635Z,8.11
2019-04-20T03:06:06.155Z,8.09
2019-04-20T03:08:38.232Z,8.15
2019-04-20T03:11:15.844Z,7.88
2019-04-20T03:13:45.663Z,7.84
2019-04-20T03:18:34.961Z,7.89
2019-04-20T03:21:12.870Z,7.94
2019-04-20T03:23:44.182Z,7.99
2019-04-20T03:26:10.968Z,7.74
2019-04-20T03:28:34.623Z,7.74
2019-04-20T03:31:29.785Z,7.73
2019-04-20T03:36:18.153Z,7.69
2019-04-20T03:38:38.634Z,7.64
2019-04-20T03:40:59.234Z,7.65
2019-04-20T03:43:18.214Z,7.53
2019-04-20T03:45:56.027Z,7.42
2019-04-20T03:48:35.979Z,7.49
2019-04-20T03:51:09.774Z,7.34
2019-04-20T03:53:39.731Z,7.22
2019-04-20T03:56:02.591Z,7.16
2019-04-20T03:58:37.943Z,7.10
2019-04-20T04:01:03.858Z,7.23
2019-04-20T04:03:48.724Z,7.19
2019-04-20T04:06:02.859Z,7.06
2019-04-20T04:08:27.799Z,7.03
2019-04-20T04:11:10.892Z,7.17
2019-04-20T04:13:18.768Z,7.16
2019-04-20T04:15:55.122Z,7.14
2019-04-20T04:18:26.012Z,7.11
2019-04-20T04:20:55.501Z,7.22
2019-04-20T04:23:38.072Z,7.23
2019-04-20T04:26:24.575Z,7.18
2019-04-20T04:28:37.393Z,7.09
2019-04-20T04:31:07.914Z,7.18
2019-04-20T04:36:08.920Z,6.81
2019-04-20T04:38:41.910Z,6.87
2019-04-20T04:41:18.287Z,7.09
2019-04-20T04:43:37.276Z,7.12
2019-04-20T04:45:48.906Z,7.20
2019-04-20T04:48:25.230Z,7.16
2019-04-20T04:50:57.348Z,7.17
2019-04-20T04:53:31.311Z,7.04
2019-04-20T04:55:57.540Z,6.88
2019-04-20T04:58:19.527Z,7.12
2019-04-20T05:00:49.359Z,7.19
2019-04-20T05:03:37.543Z,7.28
2019-04-20T05:06:10.396Z,6.64
2019-04-20T05:08:25.288Z,7.01
2019-04-20T05:10:48.285Z,7.11
2019-04-20T05:13:18.213Z,7.08
2019-04-20T05:16:05.234Z,7.39
2019-04-20T05:18:44.799Z,7.39
2019-04-20T05:21:13.034Z,7.63
2019-04-20T05:23:31.709Z,7.79
2019-04-20T05:26:10.051Z,7.87
2019-04-20T05:28:30.910Z,7.84
2019-04-20T05:30:52.564Z,8.16
2019-04-20T05:33:28.089Z,8.35
2019-04-20T05:36:06.786Z,8.46
2019-04-20T05:38:41.471Z,8.60
2019-04-20T05:41:08.862Z,8.73
2019-04-20T05:43:38.719Z,8.84
2019-04-20T05:46:06.239Z,8.93
2019-04-20T05:48:44.281Z,9.10
2019-04-20T05:51:01.992Z,9.18
2019-04-20T05:53:38.609Z,9.29
2019-04-20T05:56:06.049Z,9.39
2019-04-20T05:58:41.942Z,9.47
2019-04-20T06:01:18.570Z,9.43
2019-04-20T06:03:37.229Z,9.32
2019-04-20T06:08:53.752Z,9.82
2019-04-20T06:11:22.148Z,10.00
2019-04-20T06:13:42.461Z,10.17
2019-04-20T06:16:16.725Z,10.23
2019-04-20T06:18:44.098Z,10.27
2019-04-20T06:21:26.554Z,10.35
2019-04-20T06:23:51.559Z,10.56
2019-04-20T06:26:40.138Z,10.66
2019-04-20T06:28:42.703Z,10.74
2019-04-20T06:31:26.572Z,10.90
2019-04-20T06:34:27.723Z,10.99
2019-04-20T06:36:46.984Z,11.03
2019-04-20T06:39:16.075Z,11.20
2019-04-20T06:42:02.362Z,11.25
2019-04-20T06:44:14.788Z,11.23
2019-04-20T06:46:54.175Z,11.35
2019-04-20T06:49:27.493Z,11.44
2019-04-20T06:51:47.394Z,11.48
2019-04-20T06:54:03.200Z,11.68
2019-04-20T06:56:45.885Z,11.89
2019-04-20T07:02:03.932Z,12.17
2019-04-20T07:04:38.922Z,12.29
2019-04-20T07:07:03.517Z,12.34
2019-04-20T07:09:30.885Z,12.57
2019-04-20T07:11:50.536Z,12.67
2019-04-20T07:14:08.621Z,12.79
2019-04-20T07:16:51.157Z,12.91
2019-04-20T07:19:25.329Z,12.95
2019-04-20T07:24:24.862Z,13.00
2019-04-20T07:26:59.213Z,13.06
2019-04-20T07:29:31.948Z,13.22
2019-04-20T07:31:48.728Z,13.52
2019-04-20T07:37:28.183Z,13.50
2019-04-20T07:42:27.251Z,13.88
2019-04-20T07:44:55.475Z,14.20
2019-04-20T07:47:33.063Z,14.30
2019-04-20T07:49:52.366Z,14.32
2019-04-20T07:52:08.156Z,14.53
2019-04-20T07:55:19.297Z,14.53
2019-04-20T07:57:32.584Z,14.66
2019-04-20T08:02:51.735Z,15.34
2019-04-20T08:05:11.943Z,15.19
2019-04-20T08:07:42.307Z,15.38
2019-04-20T08:10:05.679Z,15.24
2019-04-20T08:12:58.398Z,15.33
2019-04-20T08:15:32.219Z,15.56
2019-04-20T08:18:06.436Z,15.51
2019-04-20T08:20:26.732Z,15.66
2019-04-20T08:25:56.088Z,15.72
2019-04-20T08:28:24.244Z,15.84
2019-04-20T08:39:51.066Z,16.49
2019-04-20T08:45:32.891Z,16.58
2019-04-20T08:47:56.830Z,16.75
2019-04-20T08:50:22.442Z,16.92
2019-04-20T08:53:15.984Z,16.97
2019-04-20T08:55:28.159Z,17.17
2019-04-20T09:00:45.997Z,17.30
2019-04-20T09:08:55.106Z,17.67
2019-04-20T09:11:31.135Z,17.89
2019-04-20T09:13:53.056Z,17.96
2019-04-20T09:16:26.969Z,18.11
2019-04-20T09:19:03.878Z,18.15
2019-04-20T09:24:49.093Z,18.44
2019-04-20T09:29:49.417Z,18.55
2019-04-20T09:32:29.040Z,18.67
2019-04-20T09:48:33.457Z,19.22
2019-04-20T09:51:17.008Z,19.20
2019-04-20T09:53:41.952Z,19.52
2019-04-20T09:56:14.386Z,19.62
2019-04-20T09:58:45.193Z,19.62
2019-04-20T10:01:09.782Z,19.57
2019-04-20T10:03:24.977Z,19.96
2019-04-20T10:05:55.925Z,19.89
2019-04-20T10:08:25.980Z,19.94
2019-04-20T10:10:56.066Z,20.04
2019-04-20T10:13:27.057Z,19.96
2019-04-20T10:15:55.615Z,19.98
2019-04-20T10:18:26.023Z,20.33
2019-04-20T10:20:55.889Z,20.43
2019-04-20T10:23:26.844Z,20.53
2019-04-20T10:25:56.565Z,20.85
2019-04-20T10:28:27.697Z,20.36
2019-04-20T10:30:56.751Z,20.57
2019-04-20T10:33:27.827Z,20.65
2019-04-20T10:35:57.459Z,20.82
2019-04-20T10:38:27.574Z,21.01
2019-04-20T10:41:06.110Z,20.85
2019-04-20T10:43:28.151Z,20.82
2019-04-20T10:45:57.236Z,20.89
2019-04-20T10:48:27.157Z,20.87
2019-04-20T10:50:57.260Z,20.94
2019-04-20T10:53:27.971Z,20.99
2019-04-20T10:55:57.794Z,20.85
2019-04-20T10:58:27.600Z,21.01
2019-04-20T11:00:57.717Z,20.88
2019-04-20T11:03:28.806Z,21.31
2019-04-20T11:05:58.531Z,21.00
2019-04-20T11:08:28.587Z,21.04
2019-04-20T11:11:07.136Z,21.17
2019-04-20T11:13:27.667Z,21.47
2019-04-20T11:15:57.357Z,21.23
2019-04-20T11:18:27.649Z,21.42
2019-04-20T11:20:57.610Z,21.59
2019-04-20T11:23:28.667Z,21.68
2019-04-20T11:25:58.117Z,21.64
2019-04-20T11:28:28.204Z,21.84
2019-04-20T11:30:58.526Z,21.90
2019-04-20T11:33:28.267Z,21.77
2019-04-20T11:35:59.150Z,21.82
2019-04-20T11:38:28.395Z,21.87
2019-04-20T11:41:10.014Z,22.00
2019-04-20T11:43:29.295Z,22.07
2019-04-20T11:45:58.486Z,21.99
2019-04-20T11:48:29.428Z,22.20
2019-04-20T11:50:58.541Z,22.28
2019-04-20T11:53:28.687Z,22.25
2019-04-20T11:55:58.755Z,22.09
2019-04-20T11:58:28.704Z,22.03
2019-04-20T12:01:04.140Z,22.37
2019-04-20T12:03:37.882Z,22.48
2019-04-20T12:06:03.177Z,22.43
2019-04-20T12:08:29.571Z,22.21
2019-04-20T12:11:06.073Z,22.30
2019-04-20T12:16:09.878Z,22.26
2019-04-20T12:18:39.077Z,22.23
2019-04-20T12:21:08.992Z,22.42
2019-04-20T12:23:40.333Z,22.33
2019-04-20T12:26:10.806Z,22.17
2019-04-20T12:28:40.121Z,22.28
2019-04-20T12:31:14.790Z,22.21
2019-04-20T12:33:40.240Z,21.89
2019-04-20T12:36:10.300Z,22.51
2019-04-20T12:38:41.210Z,22.26
2019-04-20T12:41:12.525Z,22.29
2019-04-20T12:43:39.840Z,22.35
2019-04-20T12:46:10.095Z,22.02
2019-04-20T12:48:41.794Z,22.09
2019-04-20T12:51:11.376Z,22.28
2019-04-20T12:53:40.736Z,22.19
2019-04-20T12:56:10.658Z,22.52
2019-04-20T12:58:43.406Z,22.40
2019-04-20T13:01:12.092Z,22.39
2019-04-20T13:03:41.582Z,22.06
2019-04-20T13:06:12.122Z,22.14
2019-04-20T13:08:45.136Z,21.96
2019-04-20T13:11:12.882Z,21.68
2019-04-20T13:13:41.381Z,21.81
2019-04-20T13:16:12.252Z,21.86
2019-04-20T13:18:43.259Z,22.16
2019-04-20T13:21:13.165Z,22.13
2019-04-20T13:23:42.779Z,21.88
2019-04-20T13:26:13.659Z,21.94
2019-04-20T13:28:43.293Z,21.98
2019-04-20T13:31:12.078Z,21.94
2019-04-20T13:33:43.208Z,22.16
2019-04-20T13:36:12.498Z,22.20
2019-04-20T13:38:42.016Z,22.11
2019-04-20T13:41:12.151Z,21.97
2019-04-20T13:43:43.814Z,21.68
2019-04-20T13:46:13.314Z,21.96
2019-04-20T13:48:42.691Z,21.96
2019-04-20T13:51:12.719Z,21.92
2019-04-20T13:53:43.362Z,21.84
2019-04-20T13:56:13.745Z,21.90
2019-04-20T13:58:43.593Z,21.76
2019-04-20T14:01:12.815Z,21.98
2019-04-20T14:03:42.932Z,22.15
2019-04-20T14:06:12.737Z,22.00
2019-04-20T14:08:43.241Z,21.61
2019-04-20T14:11:13.458Z,21.80
2019-04-20T14:13:49.007Z,21.82
2019-04-20T14:16:14.339Z,21.55
2019-04-20T14:18:43.108Z,21.73
2019-04-20T14:21:14.216Z,21.71
2019-04-20T14:23:43.289Z,21.41
2019-04-20T14:26:13.205Z,21.53
2019-04-20T14:28:43.137Z,21.51
2019-04-20T14:31:14.104Z,21.46
2019-04-20T14:33:43.030Z,21.43
2019-04-20T14:36:12.968Z,21.34
2019-04-20T14:38:45.330Z,21.38
2019-04-20T14:41:13.252Z,21.31
2019-04-20T14:43:43.185Z,21.56
2019-04-20T14:46:13.131Z,21.64
2019-04-20T14:48:44.869Z,21.42
2019-04-20T14:51:13.942Z,21.21
2019-04-20T14:53:43.744Z,21.29
2019-04-20T14:56:14.043Z,21.41
2019-04-20T14:58:45.154Z,21.28
2019-04-20T15:01:14.383Z,21.32
2019-04-20T15:03:45.412Z,21.46
2019-04-20T15:06:13.795Z,20.81
2019-04-20T15:08:44.956Z,21.02
2019-04-20T15:11:14.740Z,21.00
2019-04-20T15:13:44.733Z,21.07
2019-04-20T15:16:15.051Z,20.89
2019-04-20T15:18:45.054Z,20.94
2019-04-20T15:21:13.863Z,20.74
2019-04-20T15:23:45.619Z,20.69
2019-04-20T15:26:14.433Z,20.66
2019-04-20T15:28:44.648Z,20.77
2019-04-20T15:31:14.606Z,20.74
2019-04-20T15:33:45.267Z,20.73
2019-04-20T15:36:15.907Z,20.88
2019-04-20T15:38:45.115Z,21.00
2019-04-20T15:41:16.744Z,21.01
2019-04-20T15:43:45.719Z,20.75
2019-04-20T15:46:17.114Z,20.57
2019-04-20T15:48:46.220Z,20.54
2019-04-20T15:51:17.326Z,20.60
2019-04-20T15:53:47.385Z,20.69
2019-04-20T15:56:16.612Z,20.54
2019-04-20T15:58:46.404Z,20.65
2019-04-20T16:01:16.426Z,20.66
2019-04-20T16:03:47.555Z,20.56
2019-04-20T16:06:17.081Z,20.40
2019-04-20T16:08:48.087Z,20.32
2019-04-20T16:11:17.311Z,20.27
2019-04-20T16:13:50.424Z,20.28
2019-04-20T16:16:17.202Z,20.40
2019-04-20T16:18:48.468Z,20.20
2019-04-20T16:21:22.430Z,20.10
2019-04-20T16:23:48.530Z,20.19
2019-04-20T16:28:57.657Z,20.31
2019-04-20T16:36:46.454Z,21.29
2019-04-20T16:39:16.648Z,21.32
2019-04-20T16:41:46.588Z,20.85
2019-04-20T16:44:17.542Z,20.59
2019-04-20T16:46:48.082Z,20.46
2019-04-20T16:49:17.030Z,20.38
2019-04-20T16:51:47.150Z,20.56
2019-04-20T16:54:17.695Z,20.88
2019-04-20T16:56:47.146Z,21.00
2019-04-20T16:59:17.819Z,21.16
2019-04-20T17:01:47.018Z,20.67
2019-04-20T17:04:20.544Z,20.26
2019-04-20T17:06:47.770Z,20.17
2019-04-20T17:09:17.888Z,20.00
2019-04-20T17:11:47.712Z,19.93
2019-04-20T17:14:17.903Z,19.91
2019-04-20T17:16:47.692Z,19.87
2019-04-20T17:21:57.413Z,19.78
2019-04-20T17:24:27.489Z,19.69
2019-04-20T17:26:57.424Z,19.47
2019-04-20T17:32:08.059Z,19.33
2019-04-20T17:34:54.523Z,19.05
2019-04-20T17:37:06.950Z,19.24
2019-04-20T17:39:55.276Z,19.22
2019-04-20T17:42:19.576Z,19.07
2019-04-20T17:47:37.618Z,18.75
2019-04-20T17:50:08.346Z,18.67
2019-04-20T17:52:36.661Z,18.75
2019-04-20T17:54:47.306Z,18.83
2019-04-20T17:57:17.138Z,18.81
2019-04-20T17:59:53.226Z,18.83
2019-04-20T18:02:30.770Z,18.80
2019-04-20T18:07:46.303Z,18.57
2019-04-20T18:10:17.243Z,18.59
2019-04-20T18:12:35.203Z,18.69
2019-04-20T18:15:17.021Z,18.64
2019-04-20T18:17:40.219Z,18.46
2019-04-20T18:19:56.903Z,18.31
2019-04-20T18:22:27.698Z,18.16
2019-04-20T18:25:20.882Z,17.91
2019-04-20T18:27:41.127Z,17.80
2019-04-20T18:30:14.781Z,17.57
2019-04-20T18:32:27.463Z,17.53
2019-04-20T18:35:00.858Z,17.19
2019-04-20T18:37:28.347Z,17.19
2019-04-20T18:40:03.191Z,16.92
2019-04-20T18:42:31.323Z,16.84
2019-04-20T18:45:12.818Z,16.73
2019-04-20T18:47:45.512Z,16.73
2019-04-20T18:50:07.683Z,16.44
2019-04-20T18:52:27.527Z,16.43
2019-04-20T18:54:57.580Z,16.44
2019-04-20T18:57:29.675Z,16.22
2019-04-20T18:59:58.665Z,16.14
2019-04-20T19:02:30.897Z,15.98
2019-04-20T19:04:59.920Z,15.85
2019-04-20T19:07:27.999Z,15.95
2019-04-20T19:10:05.087Z,15.73
2019-04-20T19:12:31.101Z,15.48
2019-04-20T19:15:12.115Z,15.48
2019-04-20T19:17:42.012Z,15.43
2019-04-20T19:19:59.654Z,15.40
2019-04-20T19:22:28.037Z,15.39
2019-04-20T19:27:43.408Z,14.98
2019-04-20T19:30:21.215Z,15.08
2019-04-20T19:32:56.293Z,14.79
2019-04-20T19:38:00.700Z,14.85
2019-04-20T19:40:36.045Z,14.64
2019-04-20T19:43:02.533Z,14.87
2019-04-20T19:45:42.386Z,14.56
2019-04-20T19:48:07.790Z,14.62
2019-04-20T19:50:41.342Z,14.43
2019-04-20T19:53:19.991Z,14.48
2019-04-20T19:55:34.115Z,14.33
2019-04-20T19:58:03.935Z,14.34
2019-04-20T20:02:59.516Z,14.46
2019-04-20T20:05:35.092Z,14.20
2019-04-20T20:08:06.441Z,14.01
2019-04-20T20:13:09.989Z,14.03
2019-04-20T20:15:41.771Z,13.87
2019-04-20T20:18:27.040Z,13.86
2019-04-20T20:20:55.429Z,13.79
2019-04-20T20:23:10.231Z,13.76
2019-04-20T20:25:44.871Z,13.75
2019-04-20T20:28:21.535Z,13.74
2019-04-20T20:30:53.689Z,13.74
2019-04-20T20:33:30.660Z,13.73
2019-04-20T20:35:46.939Z,13.71
2019-04-20T20:38:22.527Z,13.65
2019-04-20T20:40:54.855Z,13.48
2019-04-20T20:43:21.816Z,13.54
2019-04-20T20:48:37.957Z,13.47
2019-04-20T20:51:10.555Z,13.46
2019-04-20T20:53:41.412Z,13.45
2019-04-20T20:56:07.877Z,13.37
2019-04-20T20:58:36.133Z,13.48
2019-04-20T21:01:03.759Z,13.27
2019-04-20T21:03:31.260Z,13.48
2019-04-20T21:05:53.947Z,13.28
2019-04-20T21:08:23.962Z,13.29
2019-04-20T21:10:54.741Z,13.32
2019-04-20T21:13:27.049Z,13.21
2019-04-20T21:16:02.999Z,13.23
2019-04-20T21:18:44.883Z,13.10
2019-04-20T21:21:11.728Z,13.26
2019-04-20T21:23:36.850Z,13.16
2019-04-20T21:25:55.293Z,13.08
2019-04-20T21:28:24.724Z,13.04
2019-04-20T21:30:59.904Z,13.06
2019-04-20T21:36:04.991Z,13.23
2019-04-20T21:38:38.660Z,13.13
2019-04-20T21:41:09.490Z,12.90
2019-04-20T21:43:38.772Z,12.87
2019-04-20T21:46:06.672Z,12.93
2019-04-20T21:48:48.931Z,12.81
2019-04-20T21:51:19.091Z,12.82
2019-04-20T21:53:35.327Z,12.85
2019-04-20T21:56:03.910Z,12.68
2019-04-20T21:58:42.667Z,12.77
2019-04-20T22:01:13.475Z,12.67
2019-04-20T22:03:34.302Z,12.63
2019-04-20T22:06:04.770Z,12.61
2019-04-20T22:08:34.640Z,12.52
2019-04-20T22:11:04.276Z,12.55
2019-04-20T22:13:38.852Z,12.31
2019-04-20T22:16:08.772Z,12.32
2019-04-20T22:18:48.407Z,12.41
2019-04-20T22:21:14.721Z,12.44
2019-04-20T22:23:51.436Z,12.52
2019-04-20T22:26:17.620Z,12.25
2019-04-20T22:28:35.968Z,12.18
2019-04-20T22:31:06.326Z,12.13
2019-04-20T22:33:39.401Z,12.02
2019-04-20T22:36:07.856Z,11.95
2019-04-20T22:38:39.734Z,11.86
2019-04-20T22:41:13.249Z,11.81
2019-04-20T22:43:38.399Z,11.95
2019-04-20T22:46:05.640Z,11.99
2019-04-20T22:48:38.460Z,11.93
2019-04-20T22:51:22.364Z,11.87
2019-04-20T22:53:48.511Z,11.78
2019-04-20T22:56:27.091Z,11.76
2019-04-20T22:58:50.028Z,11.77
2019-04-20T23:01:17.509Z,11.74
2019-04-20T23:03:36.752Z,11.73
2019-04-20T23:06:06.830Z,11.74
2019-04-20T23:08:35.760Z,11.56
2019-04-20T23:11:14.891Z,11.45
2019-04-20T23:13:41.222Z,11.40
2019-04-20T23:16:07.442Z,11.55
2019-04-20T23:18:36.113Z,11.53
2019-04-20T23:21:10.208Z,11.46
2019-04-20T23:23:37.312Z,11.35
2019-04-20T23:26:07.160Z,11.08
2019-04-20T23:28:42.112Z,11.21
2019-04-20T23:31:11.876Z,11.05
2019-04-20T23:33:36.139Z,11.08
2019-04-20T23:36:07.841Z,11.10
2019-04-20T23:38:36.734Z,11.09
2019-04-20T23:41:07.897Z,11.08
2019-04-20T23:43:38.449Z,11.04
2019-04-20T23:46:09.321Z,10.94
2019-04-20T23:48:41.220Z,10.94
2019-04-20T23:51:28.996Z,10.78
2019-04-20T23:53:48.168Z,10.75
2019-04-20T23:56:07.876Z,10.82
2019-04-20T23:58:42.967Z,10.69
